sensor_id;sensor_type;location;lat;lon;timestamp;P1;durP1;ratioP1;P2;durP2;ratioP2
40729;SDS011;26418;50.070;8.436;2022-11-21T00:14:27;3.83;;;0.80;;
40729;SDS011;26418;50.070;8.436;2022-11-21T00:41:52;0.88;;;0.20;;
40729;SDS011;26418;50.070;8.436;2022-11-21T00:44:17;1.10;;;0.50;;
40729;SDS011;26418;50.070;8.436;2022-11-21T00:46:55;1.33;;;0.43;;
40729;SDS011;26418;50.070;8.436;2022-11-21T00:49:20;1.70;;;0.68;;
40729;SDS011;26418;50.070;8.436;2022-11-21T00:51:46;2.25;;;0.68;;
40729;SDS011;26418;50.070;8.436;2022-11-21T00:54:17;3.05;;;1.00;;
40729;SDS011;26418;50.070;8.436;2022-11-21T00:56:51;2.13;;;0.43;;
40729;SDS011;26418;50.070;8.436;2022-11-21T01:02:54;0.27;;;0.20;;
40729;SDS011;26418;50.070;8.436;2022-11-21T01:05:20;0.80;;;0.28;;
40729;SDS011;26418;50.070;8.436;2022-11-21T01:07:46;0.68;;;0.38;;
40729;SDS011;26418;50.070;8.436;2022-11-21T01:10:13;2.85;;;0.45;;
40729;SDS011;26418;50.070;8.436;2022-11-21T01:12:38;1.40;;;0.40;;
40729;SDS011;26418;50.070;8.436;2022-11-21T01:15:04;2.53;;;0.50;;
40729;SDS011;26418;50.070;8.436;2022-11-21T01:17:31;1.38;;;0.45;;
40729;SDS011;26418;50.070;8.436;2022-11-21T01:19:56;1.08;;;0.35;;
40729;SDS011;26418;50.070;8.436;2022-11-21T01:22:22;1.50;;;0.50;;
40729;SDS011;26418;50.070;8.436;2022-11-21T01:24:47;1.50;;;0.38;;
40729;SDS011;26418;50.070;8.436;2022-11-21T01:27:13;4.10;;;0.75;;
40729;SDS011;26418;50.070;8.436;2022-11-21T01:29:38;1.75;;;0.52;;
40729;SDS011;26418;50.070;8.436;2022-11-21T01:32:03;2.00;;;0.70;;
40729;SDS011;26418;50.070;8.436;2022-11-21T01:34:29;4.15;;;0.75;;
40729;SDS011;26418;50.070;8.436;2022-11-21T01:36:54;1.52;;;0.80;;
40729;SDS011;26418;50.070;8.436;2022-11-21T01:39:20;2.78;;;0.57;;
40729;SDS011;26418;50.070;8.436;2022-11-21T01:41:45;2.58;;;0.60;;
40729;SDS011;26418;50.070;8.436;2022-11-21T01:47:10;4.88;;;1.13;;
40729;SDS011;26418;50.070;8.436;2022-11-21T01:49:36;5.97;;;1.42;;
40729;SDS011;26418;50.070;8.436;2022-11-21T01:52:08;4.18;;;0.88;;
40729;SDS011;26418;50.070;8.436;2022-11-21T02:02:14;8.65;;;1.70;;
40729;SDS011;26418;50.070;8.436;2022-11-21T02:04:42;6.20;;;1.20;;
40729;SDS011;26418;50.070;8.436;2022-11-21T02:07:08;4.78;;;1.20;;
40729;SDS011;26418;50.070;8.436;2022-11-21T02:09:37;4.65;;;1.30;;
40729;SDS011;26418;50.070;8.436;2022-11-21T02:12:08;3.45;;;1.02;;
40729;SDS011;26418;50.070;8.436;2022-11-21T02:14:39;2.80;;;1.17;;
40729;SDS011;26418;50.070;8.436;2022-11-21T02:17:08;5.93;;;1.35;;
40729;SDS011;26418;50.070;8.436;2022-11-21T02:19:37;6.30;;;1.42;;
40729;SDS011;26418;50.070;8.436;2022-11-21T02:27:38;3.75;;;1.15;;
40729;SDS011;26418;50.070;8.436;2022-11-21T02:30:04;5.82;;;1.40;;
40729;SDS011;26418;50.070;8.436;2022-11-21T02:32:34;4.57;;;1.40;;
40729;SDS011;26418;50.070;8.436;2022-11-21T02:35:01;5.32;;;1.20;;
40729;SDS011;26418;50.070;8.436;2022-11-21T02:37:27;6.85;;;1.35;;
40729;SDS011;26418;50.070;8.436;2022-11-21T02:39:53;6.20;;;1.83;;
40729;SDS011;26418;50.070;8.436;2022-11-21T02:42:35;2.92;;;1.40;;
40729;SDS011;26418;50.070;8.436;2022-11-21T02:45:14;7.55;;;1.58;;
40729;SDS011;26418;50.070;8.436;2022-11-21T02:47:45;4.82;;;1.15;;
40729;SDS011;26418;50.070;8.436;2022-11-21T02:50:24;4.65;;;1.00;;
40729;SDS011;26418;50.070;8.436;2022-11-21T02:52:55;3.88;;;1.00;;
40729;SDS011;26418;50.070;8.436;2022-11-21T02:55:21;3.45;;;1.00;;
40729;SDS011;26418;50.070;8.436;2022-11-21T02:57:47;6.75;;;1.83;;
40729;SDS011;26418;50.070;8.436;2022-11-21T03:00:12;7.80;;;1.83;;
40729;SDS011;26418;50.070;8.436;2022-11-21T03:02:38;3.08;;;1.15;;
40729;SDS011;26418;50.070;8.436;2022-11-21T03:05:05;6.97;;;1.52;;
40729;SDS011;26418;50.070;8.436;2022-11-21T03:07:32;4.43;;;1.38;;
40729;SDS011;26418;50.070;8.436;2022-11-21T03:09:57;4.55;;;1.08;;
40729;SDS011;26418;50.070;8.436;2022-11-21T03:12:23;6.90;;;1.90;;
40729;SDS011;26418;50.070;8.436;2022-11-21T03:14:48;8.45;;;2.30;;
40729;SDS011;26418;50.070;8.436;2022-11-21T03:17:14;5.43;;;1.45;;
40729;SDS011;26418;50.070;8.436;2022-11-21T03:19:39;6.03;;;2.00;;
40729;SDS011;26418;50.070;8.436;2022-11-21T03:22:04;6.88;;;1.73;;
40729;SDS011;26418;50.070;8.436;2022-11-21T03:24:30;6.75;;;1.50;;
40729;SDS011;26418;50.070;8.436;2022-11-21T03:26:55;6.95;;;1.70;;
40729;SDS011;26418;50.070;8.436;2022-11-21T03:29:21;4.90;;;1.52;;
40729;SDS011;26418;50.070;8.436;2022-11-21T03:31:46;4.97;;;1.50;;
40729;SDS011;26418;50.070;8.436;2022-11-21T03:34:12;4.47;;;1.70;;
40729;SDS011;26418;50.070;8.436;2022-11-21T03:36:37;10.50;;;1.77;;
40729;SDS011;26418;50.070;8.436;2022-11-21T03:39:03;5.22;;;1.33;;
40729;SDS011;26418;50.070;8.436;2022-11-21T03:41:28;8.27;;;1.73;;
40729;SDS011;26418;50.070;8.436;2022-11-21T03:43:57;6.07;;;1.60;;
40729;SDS011;26418;50.070;8.436;2022-11-21T03:48:52;6.80;;;1.50;;
40729;SDS011;26418;50.070;8.436;2022-11-21T03:51:17;8.18;;;2.45;;
40729;SDS011;26418;50.070;8.436;2022-11-21T03:53:43;3.35;;;1.35;;
40729;SDS011;26418;50.070;8.436;2022-11-21T03:56:09;10.77;;;2.00;;
40729;SDS011;26418;50.070;8.436;2022-11-21T03:58:35;5.50;;;1.48;;
40729;SDS011;26418;50.070;8.436;2022-11-21T04:01:00;9.93;;;2.15;;
40729;SDS011;26418;50.070;8.436;2022-11-21T04:03:26;7.70;;;2.22;;
40729;SDS011;26418;50.070;8.436;2022-11-21T04:05:51;13.13;;;2.53;;
40729;SDS011;26418;50.070;8.436;2022-11-21T04:08:16;6.85;;;2.58;;
40729;SDS011;26418;50.070;8.436;2022-11-21T04:10:46;5.10;;;2.28;;
40729;SDS011;26418;50.070;8.436;2022-11-21T04:13:12;10.32;;;4.63;;
40729;SDS011;26418;50.070;8.436;2022-11-21T04:15:37;8.63;;;3.53;;
40729;SDS011;26418;50.070;8.436;2022-11-21T04:18:04;8.68;;;2.90;;
40729;SDS011;26418;50.070;8.436;2022-11-21T04:20:30;6.82;;;2.30;;
40729;SDS011;26418;50.070;8.436;2022-11-21T04:22:55;6.45;;;1.90;;
40729;SDS011;26418;50.070;8.436;2022-11-21T04:25:20;5.50;;;2.17;;
40729;SDS011;26418;50.070;8.436;2022-11-21T04:27:46;5.32;;;2.40;;
40729;SDS011;26418;50.070;8.436;2022-11-21T04:30:11;7.90;;;1.80;;
40729;SDS011;26418;50.070;8.436;2022-11-21T04:32:37;5.03;;;1.90;;
40729;SDS011;26418;50.070;8.436;2022-11-21T04:35:05;8.02;;;1.83;;
40729;SDS011;26418;50.070;8.436;2022-11-21T04:37:31;5.38;;;2.33;;
40729;SDS011;26418;50.070;8.436;2022-11-21T04:39:56;7.10;;;1.92;;
40729;SDS011;26418;50.070;8.436;2022-11-21T04:42:22;4.38;;;1.67;;
40729;SDS011;26418;50.070;8.436;2022-11-21T04:44:48;8.55;;;2.30;;
40729;SDS011;26418;50.070;8.436;2022-11-21T04:47:13;2.83;;;0.85;;
40729;SDS011;26418;50.070;8.436;2022-11-21T04:49:39;7.65;;;1.73;;
40729;SDS011;26418;50.070;8.436;2022-11-21T04:52:04;6.93;;;1.70;;
40729;SDS011;26418;50.070;8.436;2022-11-21T04:54:29;4.60;;;1.15;;
40729;SDS011;26418;50.070;8.436;2022-11-21T04:56:55;4.60;;;1.23;;
40729;SDS011;26418;50.070;8.436;2022-11-21T04:59:20;4.32;;;1.42;;
40729;SDS011;26418;50.070;8.436;2022-11-21T05:01:46;5.32;;;1.52;;
40729;SDS011;26418;50.070;8.436;2022-11-21T05:04:11;3.65;;;1.30;;
40729;SDS011;26418;50.070;8.436;2022-11-21T05:06:36;6.18;;;1.80;;
40729;SDS011;26418;50.070;8.436;2022-11-21T05:09:02;3.95;;;1.05;;
40729;SDS011;26418;50.070;8.436;2022-11-21T05:11:27;4.32;;;1.30;;
40729;SDS011;26418;50.070;8.436;2022-11-21T05:14:11;4.68;;;1.50;;
40729;SDS011;26418;50.070;8.436;2022-11-21T05:16:37;3.78;;;1.40;;
40729;SDS011;26418;50.070;8.436;2022-11-21T05:19:02;5.90;;;1.58;;
40729;SDS011;26418;50.070;8.436;2022-11-21T05:21:28;4.30;;;1.50;;
40729;SDS011;26418;50.070;8.436;2022-11-21T05:23:53;4.32;;;1.48;;
40729;SDS011;26418;50.070;8.436;2022-11-21T05:26:19;2.70;;;1.15;;
40729;SDS011;26418;50.070;8.436;2022-11-21T05:28:44;4.72;;;1.08;;
40729;SDS011;26418;50.070;8.436;2022-11-21T05:31:11;3.88;;;1.13;;
40729;SDS011;26418;50.070;8.436;2022-11-21T05:33:37;3.75;;;1.10;;
40729;SDS011;26418;50.070;8.436;2022-11-21T05:36:02;8.90;;;1.35;;
40729;SDS011;26418;50.070;8.436;2022-11-21T05:38:28;2.60;;;1.55;;
40729;SDS011;26418;50.070;8.436;2022-11-21T05:40:54;5.88;;;1.73;;
40729;SDS011;26418;50.070;8.436;2022-11-21T05:43:19;4.05;;;1.33;;
40729;SDS011;26418;50.070;8.436;2022-11-21T05:46:03;6.13;;;1.60;;
40729;SDS011;26418;50.070;8.436;2022-11-21T05:48:29;4.57;;;1.02;;
40729;SDS011;26418;50.070;8.436;2022-11-21T05:50:54;3.67;;;1.17;;
40729;SDS011;26418;50.070;8.436;2022-11-21T05:53:20;3.75;;;1.58;;
40729;SDS011;26418;50.070;8.436;2022-11-21T05:55:45;3.10;;;1.15;;
40729;SDS011;26418;50.070;8.436;2022-11-21T05:58:11;4.13;;;1.90;;
40729;SDS011;26418;50.070;8.436;2022-11-21T06:00:37;8.50;;;1.80;;
40729;SDS011;26418;50.070;8.436;2022-11-21T06:03:03;5.70;;;1.75;;
40729;SDS011;26418;50.070;8.436;2022-11-21T06:05:48;9.40;;;2.15;;
40729;SDS011;26418;50.070;8.436;2022-11-21T06:08:14;4.88;;;1.38;;
40729;SDS011;26418;50.070;8.436;2022-11-21T06:10:40;7.82;;;1.95;;
40729;SDS011;26418;50.070;8.436;2022-11-21T06:13:08;6.05;;;1.55;;
40729;SDS011;26418;50.070;8.436;2022-11-21T06:15:49;6.80;;;1.60;;
40729;SDS011;26418;50.070;8.436;2022-11-21T06:18:16;3.35;;;1.60;;
40729;SDS011;26418;50.070;8.436;2022-11-21T06:20:41;6.97;;;2.03;;
40729;SDS011;26418;50.070;8.436;2022-11-21T06:23:07;8.25;;;2.20;;
40729;SDS011;26418;50.070;8.436;2022-11-21T06:25:33;3.72;;;1.60;;
40729;SDS011;26418;50.070;8.436;2022-11-21T06:27:59;7.97;;;2.25;;
40729;SDS011;26418;50.070;8.436;2022-11-21T06:30:24;8.80;;;1.98;;
40729;SDS011;26418;50.070;8.436;2022-11-21T06:32:50;4.38;;;1.33;;
40729;SDS011;26418;50.070;8.436;2022-11-21T06:35:15;3.45;;;1.63;;
40729;SDS011;26418;50.070;8.436;2022-11-21T06:37:41;5.05;;;1.63;;
40729;SDS011;26418;50.070;8.436;2022-11-21T06:40:07;6.72;;;1.45;;
40729;SDS011;26418;50.070;8.436;2022-11-21T06:42:33;5.15;;;1.92;;
40729;SDS011;26418;50.070;8.436;2022-11-21T06:44:58;7.55;;;1.80;;
40729;SDS011;26418;50.070;8.436;2022-11-21T06:47:24;5.00;;;1.73;;
40729;SDS011;26418;50.070;8.436;2022-11-21T06:49:49;4.15;;;1.42;;
40729;SDS011;26418;50.070;8.436;2022-11-21T06:52:15;3.30;;;1.52;;
40729;SDS011;26418;50.070;8.436;2022-11-21T06:54:40;3.65;;;1.50;;
40729;SDS011;26418;50.070;8.436;2022-11-21T06:57:06;3.15;;;1.60;;
40729;SDS011;26418;50.070;8.436;2022-11-21T06:59:32;3.17;;;1.63;;
40729;SDS011;26418;50.070;8.436;2022-11-21T07:01:57;6.78;;;1.75;;
40729;SDS011;26418;50.070;8.436;2022-11-21T07:04:23;4.22;;;1.67;;
40729;SDS011;26418;50.070;8.436;2022-11-21T07:06:48;3.85;;;2.15;;
40729;SDS011;26418;50.070;8.436;2022-11-21T07:09:14;4.93;;;1.73;;
40729;SDS011;26418;50.070;8.436;2022-11-21T07:11:39;4.63;;;2.13;;
40729;SDS011;26418;50.070;8.436;2022-11-21T07:14:05;4.63;;;2.28;;
40729;SDS011;26418;50.070;8.436;2022-11-21T07:16:32;1.92;;;1.15;;
40729;SDS011;26418;50.070;8.436;2022-11-21T07:18:58;4.40;;;1.48;;
40729;SDS011;26418;50.070;8.436;2022-11-21T07:21:24;3.47;;;1.50;;
40729;SDS011;26418;50.070;8.436;2022-11-21T07:23:51;2.88;;;1.38;;
40729;SDS011;26418;50.070;8.436;2022-11-21T07:26:16;5.32;;;1.67;;
40729;SDS011;26418;50.070;8.436;2022-11-21T07:28:42;5.85;;;2.13;;
40729;SDS011;26418;50.070;8.436;2022-11-21T07:31:08;5.68;;;1.73;;
40729;SDS011;26418;50.070;8.436;2022-11-21T07:33:34;4.68;;;1.85;;
40729;SDS011;26418;50.070;8.436;2022-11-21T07:36:01;5.03;;;2.10;;
40729;SDS011;26418;50.070;8.436;2022-11-21T07:38:27;5.60;;;1.80;;
40729;SDS011;26418;50.070;8.436;2022-11-21T07:40:54;4.18;;;1.60;;
40729;SDS011;26418;50.070;8.436;2022-11-21T07:43:21;4.13;;;1.38;;
40729;SDS011;26418;50.070;8.436;2022-11-21T07:45:46;3.45;;;1.45;;
40729;SDS011;26418;50.070;8.436;2022-11-21T07:48:12;2.10;;;1.73;;
40729;SDS011;26418;50.070;8.436;2022-11-21T07:50:38;3.95;;;2.13;;
40729;SDS011;26418;50.070;8.436;2022-11-21T07:53:05;4.30;;;1.80;;
40729;SDS011;26418;50.070;8.436;2022-11-21T07:55:32;6.53;;;2.22;;
40729;SDS011;26418;50.070;8.436;2022-11-21T08:00:34;3.28;;;1.70;;
40729;SDS011;26418;50.070;8.436;2022-11-21T08:03:04;5.80;;;1.65;;
40729;SDS011;26418;50.070;8.436;2022-11-21T08:05:34;2.95;;;1.88;;
40729;SDS011;26418;50.070;8.436;2022-11-21T08:08:01;3.75;;;2.08;;
40729;SDS011;26418;50.070;8.436;2022-11-21T08:10:26;4.40;;;1.88;;
40729;SDS011;26418;50.070;8.436;2022-11-21T08:12:52;4.00;;;2.00;;
40729;SDS011;26418;50.070;8.436;2022-11-21T08:15:17;4.80;;;1.67;;
40729;SDS011;26418;50.070;8.436;2022-11-21T08:17:43;5.97;;;1.67;;
40729;SDS011;26418;50.070;8.436;2022-11-21T08:20:09;1.95;;;1.45;;
40729;SDS011;26418;50.070;8.436;2022-11-21T08:22:38;3.40;;;1.80;;
40729;SDS011;26418;50.070;8.436;2022-11-21T08:25:08;6.78;;;1.55;;
40729;SDS011;26418;50.070;8.436;2022-11-21T08:27:38;2.50;;;1.33;;
40729;SDS011;26418;50.070;8.436;2022-11-21T08:30:05;3.38;;;1.58;;
40729;SDS011;26418;50.070;8.436;2022-11-21T08:32:31;4.65;;;1.83;;
40729;SDS011;26418;50.070;8.436;2022-11-21T08:34:58;5.43;;;1.48;;
40729;SDS011;26418;50.070;8.436;2022-11-21T08:37:23;3.45;;;1.40;;
40729;SDS011;26418;50.070;8.436;2022-11-21T08:39:49;4.03;;;1.60;;
40729;SDS011;26418;50.070;8.436;2022-11-21T08:42:14;1.98;;;1.27;;
40729;SDS011;26418;50.070;8.436;2022-11-21T08:44:40;3.95;;;1.25;;
40729;SDS011;26418;50.070;8.436;2022-11-21T08:47:05;2.78;;;1.67;;
40729;SDS011;26418;50.070;8.436;2022-11-21T08:49:31;3.33;;;1.50;;
40729;SDS011;26418;50.070;8.436;2022-11-21T08:51:56;4.82;;;1.52;;
40729;SDS011;26418;50.070;8.436;2022-11-21T08:54:25;4.20;;;1.60;;
40729;SDS011;26418;50.070;8.436;2022-11-21T08:56:51;3.90;;;1.17;;
40729;SDS011;26418;50.070;8.436;2022-11-21T08:59:17;9.32;;;1.90;;
40729;SDS011;26418;50.070;8.436;2022-11-21T09:01:43;3.10;;;1.30;;
40729;SDS011;26418;50.070;8.436;2022-11-21T09:04:09;3.10;;;1.33;;
40729;SDS011;26418;50.070;8.436;2022-11-21T09:06:35;7.90;;;1.60;;
40729;SDS011;26418;50.070;8.436;2022-11-21T09:09:03;3.78;;;1.35;;
40729;SDS011;26418;50.070;8.436;2022-11-21T09:11:29;4.50;;;1.50;;
40729;SDS011;26418;50.070;8.436;2022-11-21T09:13:55;5.32;;;2.10;;
40729;SDS011;26418;50.070;8.436;2022-11-21T09:16:41;5.70;;;1.83;;
40729;SDS011;26418;50.070;8.436;2022-11-21T09:19:25;5.80;;;1.70;;
40729;SDS011;26418;50.070;8.436;2022-11-21T09:21:51;3.47;;;1.58;;
40729;SDS011;26418;50.070;8.436;2022-11-21T09:24:17;2.97;;;1.10;;
40729;SDS011;26418;50.070;8.436;2022-11-21T09:26:43;12.75;;;1.65;;
40729;SDS011;26418;50.070;8.436;2022-11-21T09:29:09;8.18;;;1.73;;
40729;SDS011;26418;50.070;8.436;2022-11-21T09:31:35;7.55;;;1.52;;
40729;SDS011;26418;50.070;8.436;2022-11-21T09:34:02;4.45;;;1.15;;
40729;SDS011;26418;50.070;8.436;2022-11-21T09:36:27;4.35;;;1.38;;
40729;SDS011;26418;50.070;8.436;2022-11-21T09:38:53;5.72;;;1.85;;
40729;SDS011;26418;50.070;8.436;2022-11-21T09:41:25;2.20;;;1.15;;
40729;SDS011;26418;50.070;8.436;2022-11-21T09:49:47;3.47;;;1.67;;
40729;SDS011;26418;50.070;8.436;2022-11-21T09:52:18;4.18;;;1.35;;
40729;SDS011;26418;50.070;8.436;2022-11-21T09:54:49;6.07;;;1.45;;
40729;SDS011;26418;50.070;8.436;2022-11-21T09:57:20;4.35;;;1.90;;
40729;SDS011;26418;50.070;8.436;2022-11-21T09:59:48;4.13;;;1.60;;
40729;SDS011;26418;50.070;8.436;2022-11-21T10:02:16;3.60;;;1.40;;
40729;SDS011;26418;50.070;8.436;2022-11-21T10:04:44;7.53;;;1.33;;
40729;SDS011;26418;50.070;8.436;2022-11-21T10:07:16;4.40;;;1.20;;
40729;SDS011;26418;50.070;8.436;2022-11-21T10:16:01;4.60;;;1.13;;
40729;SDS011;26418;50.070;8.436;2022-11-21T10:20:53;6.75;;;1.70;;
40729;SDS011;26418;50.070;8.436;2022-11-21T10:24:05;3.20;;;1.10;;
40729;SDS011;26418;50.070;8.436;2022-11-21T10:26:35;4.90;;;1.15;;
40729;SDS011;26418;50.070;8.436;2022-11-21T10:29:14;8.02;;;1.15;;
40729;SDS011;26418;50.070;8.436;2022-11-21T10:31:49;6.00;;;0.98;;
40729;SDS011;26418;50.070;8.436;2022-11-21T10:34:18;2.58;;;1.30;;
40729;SDS011;26418;50.070;8.436;2022-11-21T10:36:55;5.85;;;1.38;;
40729;SDS011;26418;50.070;8.436;2022-11-21T10:42:17;3.65;;;1.05;;
40729;SDS011;26418;50.070;8.436;2022-11-21T10:44:59;3.78;;;0.93;;
40729;SDS011;26418;50.070;8.436;2022-11-21T10:47:43;4.68;;;1.08;;
40729;SDS011;26418;50.070;8.436;2022-11-21T10:53:10;4.35;;;1.48;;
40729;SDS011;26418;50.070;8.436;2022-11-21T10:56:01;5.15;;;1.20;;
40729;SDS011;26418;50.070;8.436;2022-11-21T10:58:48;6.57;;;1.13;;
40729;SDS011;26418;50.070;8.436;2022-11-21T11:03:44;4.50;;;1.67;;
40729;SDS011;26418;50.070;8.436;2022-11-21T11:06:09;4.40;;;0.90;;
40729;SDS011;26418;50.070;8.436;2022-11-21T11:08:50;3.20;;;1.10;;
40729;SDS011;26418;50.070;8.436;2022-11-21T11:11:19;3.90;;;1.20;;
40729;SDS011;26418;50.070;8.436;2022-11-21T11:13:51;4.53;;;1.38;;
40729;SDS011;26418;50.070;8.436;2022-11-21T11:16:18;8.60;;;1.30;;
40729;SDS011;26418;50.070;8.436;2022-11-21T11:49:40;2.50;;;0.88;;
40729;SDS011;26418;50.070;8.436;2022-11-21T11:52:29;1.33;;;0.60;;
40729;SDS011;26418;50.070;8.436;2022-11-21T11:55:00;3.72;;;0.90;;
40729;SDS011;26418;50.070;8.436;2022-11-21T11:57:31;5.43;;;0.95;;
40729;SDS011;26418;50.070;8.436;2022-11-21T12:00:05;2.30;;;0.88;;
40729;SDS011;26418;50.070;8.436;2022-11-21T12:03:04;3.00;;;0.95;;
40729;SDS011;26418;50.070;8.436;2022-11-21T12:06:05;2.80;;;0.88;;
40729;SDS011;26418;50.070;8.436;2022-11-21T12:08:42;2.17;;;0.70;;
40729;SDS011;26418;50.070;8.436;2022-11-21T12:17:12;4.05;;;0.88;;
40729;SDS011;26418;50.070;8.436;2022-11-21T12:19:41;4.28;;;1.02;;
40729;SDS011;26418;50.070;8.436;2022-11-21T12:22:08;1.55;;;0.60;;
40729;SDS011;26418;50.070;8.436;2022-11-21T12:24:35;5.93;;;0.73;;
40729;SDS011;26418;50.070;8.436;2022-11-21T12:43:57;3.92;;;0.95;;
40729;SDS011;26418;50.070;8.436;2022-11-21T12:46:35;3.47;;;0.75;;
40729;SDS011;26418;50.070;8.436;2022-11-21T12:49:17;3.97;;;0.95;;
40729;SDS011;26418;50.070;8.436;2022-11-21T12:52:22;4.22;;;1.00;;
40729;SDS011;26418;50.070;8.436;2022-11-21T12:55:18;3.45;;;0.85;;
40729;SDS011;26418;50.070;8.436;2022-11-21T12:58:07;5.60;;;0.77;;
40729;SDS011;26418;50.070;8.436;2022-11-21T13:03:20;5.20;;;1.52;;
40729;SDS011;26418;50.070;8.436;2022-11-21T13:05:53;8.43;;;1.42;;
40729;SDS011;26418;50.070;8.436;2022-11-21T13:08:22;3.85;;;0.95;;
40729;SDS011;26418;50.070;8.436;2022-11-21T13:16:47;3.55;;;1.08;;
40729;SDS011;26418;50.070;8.436;2022-11-21T13:21:59;1.70;;;0.80;;
40729;SDS011;26418;50.070;8.436;2022-11-21T13:27:08;5.07;;;1.05;;
40729;SDS011;26418;50.070;8.436;2022-11-21T13:32:40;2.45;;;1.10;;
40729;SDS011;26418;50.070;8.436;2022-11-21T13:38:02;7.80;;;1.35;;
40729;SDS011;26418;50.070;8.436;2022-11-21T13:56:41;2.45;;;1.00;;
40729;SDS011;26418;50.070;8.436;2022-11-21T14:04:49;4.18;;;0.95;;
40729;SDS011;26418;50.070;8.436;2022-11-21T14:07:34;4.28;;;1.17;;
40729;SDS011;26418;50.070;8.436;2022-11-21T14:10:16;4.28;;;1.58;;
40729;SDS011;26418;50.070;8.436;2022-11-21T14:12:45;5.23;;;0.80;;
40729;SDS011;26418;50.070;8.436;2022-11-21T14:15:31;3.50;;;0.93;;
40729;SDS011;26418;50.070;8.436;2022-11-21T14:18:04;2.47;;;1.25;;
40729;SDS011;26418;50.070;8.436;2022-11-21T14:23:15;3.38;;;1.40;;
40729;SDS011;26418;50.070;8.436;2022-11-21T14:25:55;1.90;;;1.02;;
40729;SDS011;26418;50.070;8.436;2022-11-21T14:28:24;4.70;;;1.07;;
40729;SDS011;26418;50.070;8.436;2022-11-21T14:30:57;4.45;;;0.90;;
40729;SDS011;26418;50.070;8.436;2022-11-21T14:33:26;5.97;;;1.45;;
40729;SDS011;26418;50.070;8.436;2022-11-21T14:35:54;3.17;;;1.30;;
40729;SDS011;26418;50.070;8.436;2022-11-21T14:38:23;4.13;;;1.52;;
40729;SDS011;26418;50.070;8.436;2022-11-21T14:40:49;2.95;;;1.40;;
40729;SDS011;26418;50.070;8.436;2022-11-21T14:43:29;5.18;;;1.63;;
40729;SDS011;26418;50.070;8.436;2022-11-21T14:45:56;6.27;;;1.70;;
40729;SDS011;26418;50.070;8.436;2022-11-21T14:48:26;3.17;;;1.15;;
40729;SDS011;26418;50.070;8.436;2022-11-21T14:50:53;4.85;;;1.70;;
40729;SDS011;26418;50.070;8.436;2022-11-21T14:53:24;4.22;;;2.22;;
40729;SDS011;26418;50.070;8.436;2022-11-21T14:55:49;3.33;;;1.45;;
40729;SDS011;26418;50.070;8.436;2022-11-21T14:58:16;6.20;;;1.98;;
40729;SDS011;26418;50.070;8.436;2022-11-21T15:00:59;7.22;;;1.58;;
40729;SDS011;26418;50.070;8.436;2022-11-21T15:06:21;4.82;;;1.88;;
40729;SDS011;26418;50.070;8.436;2022-11-21T15:08:47;2.95;;;1.48;;
40729;SDS011;26418;50.070;8.436;2022-11-21T15:11:12;2.35;;;1.55;;
40729;SDS011;26418;50.070;8.436;2022-11-21T15:13:41;5.07;;;1.70;;
40729;SDS011;26418;50.070;8.436;2022-11-21T15:16:11;4.47;;;1.75;;
40729;SDS011;26418;50.070;8.436;2022-11-21T15:18:38;6.65;;;2.15;;
40729;SDS011;26418;50.070;8.436;2022-11-21T15:21:05;7.80;;;2.10;;
40729;SDS011;26418;50.070;8.436;2022-11-21T15:23:34;6.72;;;2.78;;
40729;SDS011;26418;50.070;8.436;2022-11-21T15:26:04;9.55;;;3.85;;
40729;SDS011;26418;50.070;8.436;2022-11-21T15:28:30;7.45;;;3.72;;
40729;SDS011;26418;50.070;8.436;2022-11-21T15:33:59;9.90;;;3.95;;
40729;SDS011;26418;50.070;8.436;2022-11-21T15:36:29;9.30;;;3.83;;
40729;SDS011;26418;50.070;8.436;2022-11-21T15:41:37;11.73;;;4.40;;
40729;SDS011;26418;50.070;8.436;2022-11-21T15:46:32;8.98;;;4.13;;
40729;SDS011;26418;50.070;8.436;2022-11-21T15:48:59;9.82;;;4.03;;
40729;SDS011;26418;50.070;8.436;2022-11-21T15:51:33;8.98;;;4.38;;
40729;SDS011;26418;50.070;8.436;2022-11-21T15:54:00;7.77;;;4.40;;
40729;SDS011;26418;50.070;8.436;2022-11-21T15:56:25;6.93;;;4.18;;
40729;SDS011;26418;50.070;8.436;2022-11-21T15:58:51;12.38;;;4.63;;
40729;SDS011;26418;50.070;8.436;2022-11-21T16:01:20;20.75;;;9.30;;
40729;SDS011;26418;50.070;8.436;2022-11-21T16:03:48;36.22;;;19.67;;
40729;SDS011;26418;50.070;8.436;2022-11-21T16:06:15;37.60;;;18.73;;
40729;SDS011;26418;50.070;8.436;2022-11-21T16:08:41;52.83;;;24.00;;
40729;SDS011;26418;50.070;8.436;2022-11-21T16:11:10;50.35;;;22.67;;
40729;SDS011;26418;50.070;8.436;2022-11-21T16:13:41;33.08;;;14.95;;
40729;SDS011;26418;50.070;8.436;2022-11-21T16:16:08;20.00;;;8.73;;
40729;SDS011;26418;50.070;8.436;2022-11-21T16:18:35;14.07;;;8.40;;
40729;SDS011;26418;50.070;8.436;2022-11-21T16:21:04;17.95;;;7.03;;
40729;SDS011;26418;50.070;8.436;2022-11-21T16:23:31;10.75;;;6.50;;
40729;SDS011;26418;50.070;8.436;2022-11-21T16:25:56;12.43;;;5.65;;
40729;SDS011;26418;50.070;8.436;2022-11-21T16:28:22;21.63;;;11.30;;
40729;SDS011;26418;50.070;8.436;2022-11-21T16:30:47;15.68;;;9.70;;
40729;SDS011;26418;50.070;8.436;2022-11-21T16:33:12;32.30;;;13.80;;
40729;SDS011;26418;50.070;8.436;2022-11-21T16:35:38;25.08;;;11.70;;
40729;SDS011;26418;50.070;8.436;2022-11-21T16:38:07;22.08;;;9.20;;
40729;SDS011;26418;50.070;8.436;2022-11-21T16:40:33;20.40;;;9.63;;
40729;SDS011;26418;50.070;8.436;2022-11-21T16:43:05;18.00;;;9.60;;
40729;SDS011;26418;50.070;8.436;2022-11-21T16:45:34;20.80;;;10.27;;
40729;SDS011;26418;50.070;8.436;2022-11-21T16:47:59;17.65;;;9.85;;
40729;SDS011;26418;50.070;8.436;2022-11-21T16:50:24;25.02;;;10.40;;
40729;SDS011;26418;50.070;8.436;2022-11-21T16:52:51;24.60;;;15.57;;
40729;SDS011;26418;50.070;8.436;2022-11-21T16:57:57;24.20;;;11.68;;
40729;SDS011;26418;50.070;8.436;2022-11-21T17:00:23;26.30;;;15.18;;
40729;SDS011;26418;50.070;8.436;2022-11-21T17:02:50;30.23;;;15.18;;
40729;SDS011;26418;50.070;8.436;2022-11-21T17:05:16;18.13;;;10.13;;
40729;SDS011;26418;50.070;8.436;2022-11-21T17:07:42;33.05;;;16.77;;
40729;SDS011;26418;50.070;8.436;2022-11-21T17:10:08;32.13;;;16.70;;
40729;SDS011;26418;50.070;8.436;2022-11-21T17:12:37;36.00;;;17.02;;
40729;SDS011;26418;50.070;8.436;2022-11-21T17:15:05;20.00;;;10.18;;
40729;SDS011;26418;50.070;8.436;2022-11-21T17:17:33;19.48;;;11.25;;
40729;SDS011;26418;50.070;8.436;2022-11-21T17:19:59;26.17;;;15.68;;
40729;SDS011;26418;50.070;8.436;2022-11-21T17:22:24;30.25;;;15.73;;
40729;SDS011;26418;50.070;8.436;2022-11-21T17:24:53;20.20;;;10.45;;
40729;SDS011;26418;50.070;8.436;2022-11-21T17:27:19;12.95;;;7.72;;
40729;SDS011;26418;50.070;8.436;2022-11-21T17:29:44;14.90;;;8.05;;
40729;SDS011;26418;50.070;8.436;2022-11-21T17:32:10;15.95;;;7.22;;
40729;SDS011;26418;50.070;8.436;2022-11-21T17:34:35;14.60;;;8.23;;
40729;SDS011;26418;50.070;8.436;2022-11-21T17:37:01;16.65;;;7.75;;
40729;SDS011;26418;50.070;8.436;2022-11-21T17:39:26;30.17;;;13.20;;
40729;SDS011;26418;50.070;8.436;2022-11-21T17:41:52;39.00;;;19.42;;
40729;SDS011;26418;50.070;8.436;2022-11-21T17:44:18;49.63;;;25.30;;
40729;SDS011;26418;50.070;8.436;2022-11-21T17:46:43;40.38;;;21.23;;
40729;SDS011;26418;50.070;8.436;2022-11-21T17:49:09;35.38;;;16.48;;
40729;SDS011;26418;50.070;8.436;2022-11-21T17:51:36;24.23;;;12.70;;
40729;SDS011;26418;50.070;8.436;2022-11-21T17:54:02;18.95;;;9.63;;
40729;SDS011;26418;50.070;8.436;2022-11-21T17:56:28;19.10;;;7.10;;
40729;SDS011;26418;50.070;8.436;2022-11-21T17:58:55;14.07;;;6.28;;
40729;SDS011;26418;50.070;8.436;2022-11-21T18:01:21;17.88;;;8.60;;
40729;SDS011;26418;50.070;8.436;2022-11-21T18:03:47;34.17;;;16.05;;
40729;SDS011;26418;50.070;8.436;2022-11-21T18:06:20;58.80;;;25.13;;
40729;SDS011;26418;50.070;8.436;2022-11-21T18:08:46;59.60;;;25.30;;